createdAt,value
2023-04-15T00:01:21.472Z,4.30
2023-04-15T00:03:53.410Z,3.00
2023-04-15T00:06:23.334Z,5.80
2023-04-15T00:08:52.655Z,4.20
2023-04-15T00:11:21.720Z,4.50
2023-04-15T00:13:50.616Z,2.40
2023-04-15T00:16:19.688Z,3.50
2023-04-15T00:18:48.624Z,3.00
2023-04-15T00:21:17.788Z,3.20
2023-04-15T00:23:50.272Z,2.10
2023-04-15T00:26:20.074Z,3.10
2023-04-15T00:28:49.361Z,4.20
2023-04-15T00:31:19.099Z,4.50
2023-04-15T00:33:49.226Z,4.60
2023-04-15T00:36:18.277Z,5.50
2023-04-15T00:38:48.015Z,39.70
2023-04-15T00:41:17.334Z,9.10
2023-04-15T00:43:46.833Z,11.60
2023-04-15T00:46:17.198Z,7.40
2023-04-15T00:48:47.854Z,4.10
2023-04-15T00:51:16.851Z,3.70
2023-04-15T00:53:46.063Z,3.50
2023-04-15T00:56:15.477Z,4.20
2023-04-15T00:58:44.704Z,3.40
2023-04-15T01:01:13.630Z,2.30
2023-04-15T01:03:43.321Z,2.00
2023-04-15T01:06:12.388Z,3.20
2023-04-15T01:08:42.095Z,2.10
2023-04-15T01:11:13.389Z,2.10
2023-04-15T01:13:43.503Z,3.20
2023-04-15T01:16:13.820Z,2.00
2023-04-15T01:18:43.675Z,2.30
2023-04-15T01:21:14.002Z,3.50
2023-04-15T01:23:44.929Z,2.20
2023-04-15T01:26:14.087Z,2.60
2023-04-15T01:28:43.263Z,4.60
2023-04-15T01:31:14.204Z,4.40
2023-04-15T01:33:44.068Z,4.20
2023-04-15T01:36:12.772Z,3.20
2023-04-15T01:38:41.629Z,3.10
2023-04-15T01:41:10.650Z,4.00
2023-04-15T01:43:39.620Z,3.80
2023-04-15T01:46:08.618Z,3.10
2023-04-15T01:48:37.767Z,3.80
2023-04-15T01:51:06.792Z,3.70
2023-04-15T01:53:36.164Z,3.30
2023-04-15T01:56:05.298Z,5.60
2023-04-15T01:58:34.461Z,4.20
2023-04-15T02:01:04.430Z,4.90
2023-04-15T02:03:34.094Z,5.90
2023-04-15T02:06:03.310Z,6.50
2023-04-15T02:08:32.736Z,6.30
2023-04-15T02:11:02.329Z,7.60
2023-04-15T02:13:31.363Z,5.70
2023-04-15T02:16:01.139Z,6.50
2023-04-15T02:18:31.371Z,6.00
2023-04-15T02:21:00.725Z,7.60
2023-04-15T02:23:29.936Z,7.70
2023-04-15T02:25:58.594Z,8.30
2023-04-15T02:28:28.237Z,9.10
2023-04-15T02:31:00.011Z,6.70
2023-04-15T02:33:29.103Z,8.10
2023-04-15T02:35:58.213Z,7.20
2023-04-15T02:38:27.027Z,10.00
2023-04-15T02:40:56.290Z,8.00
2023-04-15T02:43:25.886Z,7.80
2023-04-15T02:45:54.586Z,8.30
2023-04-15T02:48:23.398Z,7.40
2023-04-15T02:50:52.446Z,9.20
2023-04-15T02:53:21.172Z,10.40
2023-04-15T02:55:49.960Z,8.20
2023-04-15T02:58:18.984Z,7.30
2023-04-15T03:00:48.562Z,9.40
2023-04-15T03:03:17.939Z,10.00
2023-04-15T03:05:46.759Z,10.10
2023-04-15T03:08:16.038Z,10.00
2023-04-15T03:10:44.974Z,9.20
2023-04-15T03:13:14.144Z,8.50
2023-04-15T03:15:42.872Z,10.80
2023-04-15T03:18:12.484Z,6.60
2023-04-15T03:20:41.801Z,8.20
2023-04-15T03:23:10.866Z,8.60
2023-04-15T03:25:39.623Z,8.00
2023-04-15T03:28:08.624Z,10.30
2023-04-15T03:30:37.600Z,7.10
2023-04-15T03:33:08.431Z,7.70
2023-04-15T03:35:37.614Z,8.80
2023-04-15T03:38:07.034Z,8.90
2023-04-15T03:40:36.084Z,12.50
2023-04-15T03:43:05.199Z,8.80
2023-04-15T03:45:34.376Z,9.70
2023-04-15T03:48:16.560Z,9.70
2023-04-15T03:50:46.770Z,11.50
2023-04-15T03:53:16.371Z,9.70
2023-04-15T03:55:45.675Z,6.90
2023-04-15T03:58:14.636Z,7.40
2023-04-15T04:00:43.618Z,9.20
2023-04-15T04:03:12.972Z,7.70
2023-04-15T04:05:41.931Z,8.90
2023-04-15T04:08:14.099Z,7.60
2023-04-15T04:10:43.341Z,8.30
2023-04-15T04:13:12.317Z,7.40
2023-04-15T04:15:41.183Z,7.20
2023-04-15T04:18:10.734Z,10.00
2023-04-15T04:20:39.908Z,8.60
2023-04-15T04:23:08.679Z,8.00
2023-04-15T04:25:38.051Z,8.80
2023-04-15T04:28:07.147Z,9.20
2023-04-15T04:30:36.441Z,8.00
2023-04-15T04:33:05.790Z,8.10
2023-04-15T04:35:38.019Z,9.80
2023-04-15T04:38:06.858Z,7.60
2023-04-15T04:40:35.975Z,9.40
2023-04-15T04:43:04.969Z,6.80
2023-04-15T04:45:34.003Z,9.70
2023-04-15T04:48:03.099Z,8.70
2023-04-15T04:50:32.638Z,8.80
2023-04-15T04:53:02.166Z,8.40
2023-04-15T04:55:32.417Z,8.30
2023-04-15T04:58:01.068Z,7.60
2023-04-15T05:00:30.245Z,10.80
2023-04-15T05:02:59.489Z,7.70
2023-04-15T05:05:28.399Z,7.70
2023-04-15T05:07:57.178Z,9.10
2023-04-15T05:10:25.996Z,8.80
2023-04-15T05:12:54.649Z,8.10
2023-04-15T05:15:23.825Z,8.30
2023-04-15T05:17:52.705Z,8.60
2023-04-15T05:20:22.277Z,9.30
2023-04-15T05:22:51.359Z,7.00
2023-04-15T05:25:20.675Z,7.30
2023-04-15T05:27:49.762Z,5.80
2023-04-15T05:30:19.034Z,6.30
2023-04-15T05:32:48.293Z,8.00
2023-04-15T05:35:18.105Z,7.50
2023-04-15T05:37:47.471Z,9.40
2023-04-15T05:40:16.626Z,7.50
2023-04-15T05:42:46.085Z,8.70
2023-04-15T05:45:15.182Z,7.60
2023-04-15T05:47:44.355Z,9.40
2023-04-15T05:50:13.795Z,8.80
2023-04-15T05:52:43.088Z,8.60
2023-04-15T05:55:12.315Z,6.90
2023-04-15T05:57:41.119Z,6.90
2023-04-15T06:00:10.772Z,9.70
2023-04-15T06:02:39.998Z,6.60
2023-04-15T06:05:10.318Z,8.00
2023-04-15T06:07:41.546Z,7.00
2023-04-15T06:10:10.880Z,6.20
2023-04-15T06:12:40.029Z,6.80
2023-04-15T06:15:10.934Z,5.60
2023-04-15T06:17:39.904Z,7.70
2023-04-15T06:20:09.639Z,8.10
2023-04-15T06:22:41.728Z,8.00
2023-04-15T06:25:11.768Z,6.60
2023-04-15T06:27:41.251Z,7.70
2023-04-15T06:30:11.579Z,6.80
2023-04-15T06:32:42.031Z,6.70
2023-04-15T06:35:12.153Z,6.10
2023-04-15T06:37:41.465Z,6.60
2023-04-15T06:40:11.156Z,7.20
2023-04-15T06:42:40.174Z,7.80
2023-04-15T06:45:10.015Z,6.40
2023-04-15T06:47:38.967Z,4.90
2023-04-15T06:50:08.235Z,6.90
2023-04-15T06:52:37.140Z,5.50
2023-04-15T06:55:07.411Z,6.10
2023-04-15T06:57:37.093Z,4.70
2023-04-15T07:00:11.503Z,8.20
2023-04-15T07:02:40.814Z,6.50
2023-04-15T07:05:10.338Z,5.50
2023-04-15T07:07:39.662Z,6.50
2023-04-15T07:10:09.469Z,4.30
2023-04-15T07:12:39.083Z,5.70
2023-04-15T07:15:09.686Z,5.70
2023-04-15T07:17:39.711Z,3.30
2023-04-15T07:20:10.232Z,3.60
2023-04-15T07:22:39.640Z,4.10
2023-04-15T07:25:09.626Z,4.20
2023-04-15T07:27:38.824Z,3.80
2023-04-15T07:30:09.669Z,4.90
2023-04-15T07:32:39.958Z,4.50
2023-04-15T07:35:10.340Z,4.00
2023-04-15T07:37:39.771Z,3.20
2023-04-15T07:40:10.865Z,4.10
2023-04-15T07:42:41.412Z,3.90
2023-04-15T07:45:11.711Z,3.80
2023-04-15T07:47:42.832Z,4.40
2023-04-15T07:50:12.178Z,4.20
2023-04-15T07:52:41.254Z,3.40
2023-04-15T07:55:11.824Z,2.70
2023-04-15T07:57:42.678Z,4.20
2023-04-15T08:00:12.529Z,2.60
2023-04-15T08:02:42.035Z,3.20
2023-04-15T08:05:11.493Z,4.20
2023-04-15T08:07:41.480Z,3.40
2023-04-15T08:10:10.632Z,3.60
2023-04-15T08:12:40.897Z,5.20
2023-04-15T08:15:11.565Z,3.00
2023-04-15T08:17:40.862Z,2.70
2023-04-15T08:20:11.727Z,3.50
2023-04-15T08:22:41.545Z,3.00
2023-04-15T08:25:10.909Z,2.50
2023-04-15T08:27:40.656Z,3.40
2023-04-15T08:30:11.076Z,3.70
2023-04-15T08:32:44.147Z,2.90
2023-04-15T08:35:15.356Z,3.50
2023-04-15T08:37:46.249Z,2.20
2023-04-15T08:40:16.720Z,3.30
2023-04-15T08:42:50.351Z,2.50
2023-04-15T08:45:21.463Z,2.30
2023-04-15T08:47:56.094Z,2.60
2023-04-15T08:50:27.101Z,2.40
2023-04-15T08:52:57.144Z,2.50
2023-04-15T08:55:31.245Z,2.50
2023-04-15T08:58:04.908Z,2.50
2023-04-15T09:00:34.913Z,2.60
2023-04-15T09:03:09.579Z,2.30
2023-04-15T09:05:39.597Z,2.50
2023-04-15T09:08:08.816Z,2.80
2023-04-15T09:10:38.170Z,2.60
2023-04-15T09:13:07.388Z,3.20
2023-04-15T09:15:40.504Z,3.30
2023-04-15T09:18:13.982Z,1.80
2023-04-15T09:20:44.074Z,1.80
2023-04-15T09:23:16.185Z,2.00
2023-04-15T09:25:46.309Z,2.20
2023-04-15T09:28:16.220Z,2.60
2023-04-15T09:30:50.875Z,1.90
2023-04-15T09:33:21.105Z,2.10
2023-04-15T09:36:06.901Z,2.10
2023-04-15T09:38:37.306Z,3.10
2023-04-15T09:41:20.158Z,1.90
2023-04-15T09:43:49.465Z,1.60
2023-04-15T09:46:19.995Z,1.60
2023-04-15T09:49:09.508Z,1.90
2023-04-15T09:51:39.853Z,1.50
2023-04-15T09:54:09.507Z,2.10
2023-04-15T09:56:44.000Z,1.40
2023-04-15T09:59:14.437Z,1.80
2023-04-15T10:01:45.375Z,1.20
2023-04-15T10:04:17.238Z,1.20
2023-04-15T10:06:46.931Z,1.90
2023-04-15T10:09:16.840Z,2.30
2023-04-15T10:11:46.694Z,1.70
2023-04-15T10:14:17.664Z,0.50
2023-04-15T10:16:49.454Z,0.50
2023-04-15T10:19:22.375Z,0.70
2023-04-15T10:21:53.903Z,0.80
2023-04-15T10:24:24.886Z,0.60
2023-04-15T10:26:55.042Z,0.70
2023-04-15T10:29:26.333Z,0.50
2023-04-15T10:31:57.403Z,0.50
2023-04-15T10:34:28.862Z,3.00
2023-04-15T10:37:04.133Z,0.40
2023-04-15T10:39:44.202Z,1.40
2023-04-15T10:42:18.733Z,1.60
2023-04-15T10:44:52.816Z,1.00
2023-04-15T10:47:23.024Z,0.50
2023-04-15T10:50:10.650Z,0.80
2023-04-15T10:52:44.876Z,0.80
2023-04-15T10:55:17.195Z,0.40
2023-04-15T10:57:47.277Z,1.20
2023-04-15T11:00:18.391Z,0.60
2023-04-15T11:02:59.342Z,0.30
2023-04-15T11:05:44.034Z,0.70
2023-04-15T11:08:14.053Z,2.50
2023-04-15T11:10:43.544Z,1.40
2023-04-15T11:13:12.536Z,1.00
2023-04-15T11:15:47.964Z,0.70
2023-04-15T11:18:21.280Z,0.80
2023-04-15T11:21:00.209Z,0.50
2023-04-15T11:23:41.696Z,0.40
2023-04-15T11:26:14.556Z,0.90
2023-04-15T11:28:46.869Z,0.60
2023-04-15T11:31:18.892Z,0.40
2023-04-15T11:33:58.552Z,0.20
2023-04-15T11:36:32.367Z,0.20
2023-04-15T11:39:01.814Z,0.50
2023-04-15T11:41:31.426Z,0.30
2023-04-15T11:44:01.167Z,0.20
2023-04-15T11:46:32.453Z,0.30
2023-04-15T11:49:03.008Z,0.40
2023-04-15T11:51:36.427Z,0.30
2023-04-15T11:54:06.629Z,0.40
2023-04-15T11:56:37.200Z,0.50
2023-04-15T11:59:06.284Z,0.40
2023-04-15T12:01:37.169Z,0.60
2023-04-15T12:04:19.031Z,1.00
2023-04-15T12:06:49.807Z,0.40
2023-04-15T12:09:20.609Z,1.00
2023-04-15T12:11:51.732Z,0.90
2023-04-15T12:14:28.797Z,0.80
2023-04-15T12:17:05.234Z,0.50
2023-04-15T12:19:39.914Z,1.50
2023-04-15T12:22:18.161Z,1.00
2023-04-15T12:24:50.402Z,0.70
2023-04-15T12:27:19.381Z,0.70
2023-04-15T12:29:49.102Z,0.60
2023-04-15T12:32:23.334Z,0.50
2023-04-15T12:34:56.504Z,0.50
2023-04-15T12:37:26.628Z,0.50
2023-04-15T12:39:56.841Z,0.80
2023-04-15T12:42:26.604Z,1.30
2023-04-15T12:44:56.707Z,1.00
2023-04-15T12:47:26.846Z,1.80
2023-04-15T12:49:57.374Z,0.50
2023-04-15T12:52:29.399Z,1.20
2023-04-15T12:55:00.879Z,0.70
2023-04-15T12:57:31.725Z,0.40
2023-04-15T13:00:02.605Z,1.20
2023-04-15T13:02:34.968Z,0.90
2023-04-15T13:05:04.785Z,1.80
2023-04-15T13:07:34.868Z,0.20
2023-04-15T13:10:05.553Z,2.20
2023-04-15T13:12:38.578Z,1.20
2023-04-15T13:15:11.235Z,0.40
2023-04-15T13:17:41.975Z,0.30
2023-04-15T13:20:13.176Z,0.70
2023-04-15T13:22:43.657Z,0.30
2023-04-15T13:25:14.937Z,0.60
2023-04-15T13:27:44.809Z,0.40
2023-04-15T13:30:15.811Z,0.60
2023-04-15T13:32:48.770Z,0.60
2023-04-15T13:35:22.961Z,0.60
2023-04-15T13:37:56.214Z,1.50
2023-04-15T13:40:27.451Z,0.80
2023-04-15T13:42:59.276Z,0.80
2023-04-15T13:45:29.213Z,0.90
2023-04-15T13:47:58.496Z,0.80
2023-04-15T13:50:28.661Z,0.60
2023-04-15T13:52:57.833Z,4.60
2023-04-15T13:55:27.597Z,3.90
2023-04-15T13:57:58.474Z,1.90
2023-04-15T14:00:28.588Z,3.30
2023-04-15T14:02:57.972Z,0.70
2023-04-15T14:05:27.373Z,1.10
2023-04-15T14:07:56.449Z,1.10
2023-04-15T14:10:25.966Z,1.00
2023-04-15T14:12:56.491Z,0.50
2023-04-15T14:15:27.077Z,0.60
2023-04-15T14:17:57.520Z,1.00
2023-04-15T14:20:27.359Z,1.10
2023-04-15T14:22:56.993Z,0.70
2023-04-15T14:25:33.807Z,0.80
2023-04-15T14:28:04.413Z,1.10
2023-04-15T14:30:33.802Z,1.70
2023-04-15T14:33:04.238Z,1.40
2023-04-15T14:35:35.124Z,2.50
2023-04-15T14:38:07.508Z,4.10
2023-04-15T14:40:37.717Z,4.40
2023-04-15T14:43:08.355Z,1.00
2023-04-15T14:45:42.172Z,0.90
2023-04-15T14:48:15.356Z,0.50
2023-04-15T14:50:45.687Z,0.80
2023-04-15T14:53:14.909Z,0.50
2023-04-15T14:55:44.229Z,0.80
2023-04-15T14:58:14.162Z,0.90
2023-04-15T15:00:45.073Z,0.80
2023-04-15T15:03:16.905Z,0.80
2023-04-15T15:05:49.026Z,1.50
2023-04-15T15:08:19.841Z,3.50
2023-04-15T15:10:50.237Z,1.30
2023-04-15T15:13:20.185Z,1.50
2023-04-15T15:15:50.452Z,1.30
2023-04-15T15:18:21.173Z,0.60
2023-04-15T15:20:50.325Z,1.90
2023-04-15T15:23:19.752Z,1.40
2023-04-15T15:25:49.997Z,2.00
2023-04-15T15:28:19.295Z,0.90
2023-04-15T15:30:49.224Z,1.00
2023-04-15T15:33:19.081Z,0.60
2023-04-15T15:35:49.482Z,0.60
2023-04-15T15:38:19.033Z,0.60
2023-04-15T15:40:49.227Z,0.70
2023-04-15T15:43:18.627Z,0.90
2023-04-15T15:45:48.775Z,0.60
2023-04-15T15:48:18.946Z,0.60
2023-04-15T15:50:49.018Z,0.70
2023-04-15T15:53:21.854Z,0.60
2023-04-15T15:55:54.733Z,0.50
2023-04-15T15:58:27.999Z,1.20
2023-04-15T16:01:02.086Z,0.90
2023-04-15T16:03:37.561Z,0.40
2023-04-15T16:06:10.195Z,0.70
2023-04-15T16:08:43.479Z,0.50
2023-04-15T16:11:18.189Z,1.30
2023-04-15T16:13:50.748Z,1.00
2023-04-15T16:16:24.096Z,0.80
2023-04-15T16:18:58.785Z,1.00
2023-04-15T16:21:35.406Z,1.20
2023-04-15T16:24:08.709Z,1.00
2023-04-15T16:26:44.984Z,1.20
2023-04-15T16:29:19.776Z,0.70
2023-04-15T16:31:54.414Z,0.50
2023-04-15T16:34:27.096Z,0.90
2023-04-15T16:37:02.148Z,0.60
2023-04-15T16:39:35.274Z,0.80
2023-04-15T16:42:08.983Z,0.80
2023-04-15T16:44:39.631Z,0.70
2023-04-15T16:47:13.531Z,1.60
2023-04-15T16:49:45.239Z,1.60
2023-04-15T16:52:18.640Z,2.40
2023-04-15T16:54:52.257Z,11.50
2023-04-15T16:58:01.595Z,15.30
2023-04-15T17:00:19.310Z,9.50
2023-04-15T17:02:50.648Z,7.00
2023-04-15T17:05:20.132Z,6.50
2023-04-15T17:07:51.551Z,5.90
2023-04-15T17:10:24.182Z,9.70
2023-04-15T17:12:59.396Z,4.20
2023-04-15T17:15:30.094Z,2.90
2023-04-15T17:18:00.254Z,5.70
2023-04-15T17:20:32.606Z,3.50
2023-04-15T17:23:04.849Z,1.90
2023-04-15T17:25:34.618Z,2.70
2023-04-15T17:28:06.278Z,1.70
2023-04-15T17:30:37.619Z,2.70
2023-04-15T17:33:58.052Z,3.70
2023-04-15T17:36:01.874Z,3.60
2023-04-15T17:38:35.455Z,2.90
2023-04-15T17:41:08.472Z,3.80
2023-04-15T17:43:39.971Z,5.90
2023-04-15T17:46:14.972Z,3.80
2023-04-15T17:48:59.830Z,3.40
2023-04-15T17:51:56.660Z,3.30
2023-04-15T17:54:41.952Z,3.90
2023-04-15T17:57:25.476Z,3.70
2023-04-15T17:59:58.302Z,3.70
2023-04-15T18:02:28.398Z,5.40
2023-04-15T18:04:57.810Z,4.20
2023-04-15T18:07:28.074Z,5.50
2023-04-15T18:09:58.105Z,3.70
2023-04-15T18:12:27.778Z,3.90
2023-04-15T18:14:57.153Z,3.20
2023-04-15T18:17:26.893Z,3.00
2023-04-15T18:19:56.003Z,2.50
2023-04-15T18:22:26.167Z,1.50
2023-04-15T18:24:55.628Z,1.40
2023-04-15T18:27:25.345Z,2.80
2023-04-15T18:29:55.809Z,1.60
2023-04-15T18:32:25.176Z,1.30
2023-04-15T18:34:56.205Z,1.40
2023-04-15T18:37:27.656Z,1.60
2023-04-15T18:39:57.665Z,3.40
2023-04-15T18:42:27.096Z,4.10
2023-04-15T18:44:58.682Z,4.00
2023-04-15T18:47:28.704Z,2.90
2023-04-15T18:49:59.826Z,3.90
2023-04-15T18:52:32.642Z,4.50
2023-04-15T18:55:04.731Z,7.20
2023-04-15T18:57:36.773Z,3.00
2023-04-15T19:00:08.167Z,2.20
2023-04-15T19:02:40.191Z,1.90
2023-04-15T19:05:12.330Z,2.20
2023-04-15T19:07:44.485Z,3.30
2023-04-15T19:10:14.605Z,3.70
2023-04-15T19:12:44.080Z,1.70
2023-04-15T19:15:16.885Z,1.30
2023-04-15T19:17:46.359Z,1.00
2023-04-15T19:20:15.919Z,1.40
2023-04-15T19:22:45.673Z,1.80
2023-04-15T19:25:15.892Z,1.60
2023-04-15T19:27:45.062Z,1.20
2023-04-15T19:30:14.388Z,1.20
2023-04-15T19:32:43.645Z,0.80
2023-04-15T19:35:13.286Z,0.80
2023-04-15T19:37:43.052Z,1.30
2023-04-15T19:40:12.795Z,1.00
2023-04-15T19:42:42.238Z,1.50
2023-04-15T19:45:11.951Z,1.80
2023-04-15T19:47:40.981Z,2.50
2023-04-15T19:50:12.520Z,2.80
2023-04-15T19:52:42.250Z,2.30
2023-04-15T19:55:11.887Z,1.40
2023-04-15T19:57:41.190Z,1.20
2023-04-15T20:00:11.847Z,0.70
2023-04-15T20:02:42.049Z,0.70
2023-04-15T20:05:11.762Z,4.30
2023-04-15T20:07:43.056Z,3.60
2023-04-15T20:10:13.465Z,2.40
2023-04-15T20:12:50.746Z,1.50
2023-04-15T20:15:24.182Z,1.40
2023-04-15T20:17:53.565Z,3.00
2023-04-15T20:20:23.723Z,2.70
2023-04-15T20:22:53.651Z,2.40
2023-04-15T20:25:23.179Z,1.60
2023-04-15T20:27:54.338Z,2.10
2023-04-15T20:30:25.943Z,1.40
2023-04-15T20:32:56.012Z,1.00
2023-04-15T20:35:28.906Z,1.20
2023-04-15T20:37:58.778Z,1.60
2023-04-15T20:40:29.057Z,1.00
2023-04-15T20:42:58.382Z,1.40
2023-04-15T20:45:28.275Z,1.70
2023-04-15T20:47:57.935Z,1.60
2023-04-15T20:50:27.283Z,1.20
2023-04-15T20:52:57.841Z,1.40
2023-04-15T20:55:28.995Z,1.30
2023-04-15T20:57:59.780Z,1.90
2023-04-15T21:00:29.808Z,1.90
2023-04-15T21:02:59.385Z,1.90
2023-04-15T21:05:28.962Z,2.20
2023-04-15T21:07:58.052Z,1.50
2023-04-15T21:10:27.665Z,1.20
2023-04-15T21:12:56.865Z,1.80
2023-04-15T21:15:26.337Z,1.60
2023-04-15T21:17:55.711Z,1.30
2023-04-15T21:20:24.992Z,1.50
2023-04-15T21:22:54.264Z,2.20
2023-04-15T21:25:24.054Z,2.20
2023-04-15T21:27:53.448Z,2.30
2023-04-15T21:30:24.201Z,1.40
2023-04-15T21:32:53.297Z,1.20
2023-04-15T21:35:22.701Z,1.30
2023-04-15T21:37:51.520Z,1.40
2023-04-15T21:40:20.928Z,1.20
2023-04-15T21:42:50.196Z,1.80
2023-04-15T21:45:19.830Z,2.10
2023-04-15T21:47:56.631Z,1.70
2023-04-15T21:50:39.294Z,1.20
2023-04-15T21:53:09.574Z,2.20
2023-04-15T21:55:39.530Z,2.40
2023-04-15T21:58:08.422Z,2.80
2023-04-15T22:00:40.323Z,1.90
2023-04-15T22:03:10.256Z,2.20
2023-04-15T22:05:39.751Z,2.50
2023-04-15T22:08:08.801Z,2.50
2023-04-15T22:10:39.794Z,2.10
2023-04-15T22:13:12.023Z,3.90
2023-04-15T22:15:43.309Z,5.00
2023-04-15T22:18:14.278Z,5.20
2023-04-15T22:20:44.089Z,4.30
2023-04-15T22:23:17.551Z,3.80
2023-04-15T22:25:48.298Z,3.00
2023-04-15T22:28:18.943Z,1.50
2023-04-15T22:30:48.584Z,0.80
2023-04-15T22:33:17.680Z,1.00
2023-04-15T22:35:47.116Z,1.40
2023-04-15T22:38:17.870Z,1.00
2023-04-15T22:40:49.070Z,1.30
2023-04-15T22:43:19.071Z,1.30
2023-04-15T22:45:51.562Z,1.20
2023-04-15T22:48:21.246Z,1.00
2023-04-15T22:50:51.299Z,1.80
2023-04-15T22:53:20.763Z,1.90
2023-04-15T22:55:50.045Z,1.30
2023-04-15T22:58:19.075Z,2.00
2023-04-15T23:00:48.301Z,1.60
2023-04-15T23:03:17.937Z,1.60
2023-04-15T23:05:47.603Z,1.30
2023-04-15T23:08:17.086Z,1.30
2023-04-15T23:10:46.096Z,1.40
2023-04-15T23:13:15.825Z,1.80
2023-04-15T23:15:45.151Z,1.40
2023-04-15T23:18:15.192Z,1.80
2023-04-15T23:20:44.405Z,1.60
2023-04-15T23:23:14.030Z,1.40
2023-04-15T23:25:43.525Z,1.70
2023-04-15T23:28:12.669Z,1.40
2023-04-15T23:30:42.674Z,1.40
2023-04-15T23:33:12.999Z,1.00
2023-04-15T23:35:43.534Z,0.80
2023-04-15T23:38:12.787Z,1.80
2023-04-15T23:40:42.426Z,1.10
2023-04-15T23:43:11.672Z,1.30
2023-04-15T23:45:40.886Z,1.80
2023-04-15T23:48:10.247Z,1.80
2023-04-15T23:50:40.058Z,1.50
2023-04-15T23:53:09.976Z,1.90
2023-04-15T23:55:39.241Z,1.30
2023-04-15T23:58:08.161Z,1.50
